createdAt,value
2019-06-26T00:01:25.436Z,80.20
2019-06-26T00:03:53.181Z,80.50
2019-06-26T00:06:20.865Z,80.80
2019-06-26T00:08:48.547Z,81.00
2019-06-26T00:11:16.309Z,81.40
2019-06-26T00:13:44.085Z,81.10
2019-06-26T00:16:11.763Z,81.20
2019-06-26T00:18:39.499Z,81.30
2019-06-26T00:21:07.171Z,81.50
2019-06-26T00:23:34.881Z,81.70
2019-06-26T00:26:02.914Z,82.10
2019-06-26T00:28:30.634Z,82.80
2019-06-26T00:30:58.383Z,82.90
2019-06-26T00:33:26.040Z,83.00
2019-06-26T00:35:53.798Z,83.70
2019-06-26T00:38:21.449Z,83.40
2019-06-26T00:40:49.234Z,83.50
2019-06-26T00:43:16.926Z,83.60
2019-06-26T00:45:44.651Z,83.70
2019-06-26T00:48:37.298Z,83.60
2019-06-26T00:51:05.117Z,83.80
2019-06-26T00:53:32.779Z,83.80
2019-06-26T00:56:00.514Z,83.90
2019-06-26T00:58:28.299Z,83.90
2019-06-26T01:01:08.394Z,83.90
2019-06-26T01:03:36.082Z,84.00
2019-06-26T01:06:03.818Z,84.10
2019-06-26T01:08:31.489Z,84.50
2019-06-26T01:10:59.232Z,84.30
2019-06-26T01:13:26.904Z,85.20
2019-06-26T01:15:54.757Z,84.90
2019-06-26T01:18:22.425Z,85.00
2019-06-26T01:20:50.301Z,85.10
2019-06-26T01:23:18.149Z,85.40
2019-06-26T01:25:45.920Z,85.40
2019-06-26T01:28:13.680Z,85.90
2019-06-26T01:30:41.409Z,86.10
2019-06-26T01:33:09.135Z,86.00
2019-06-26T01:35:37.041Z,86.00
2019-06-26T01:38:04.717Z,86.10
2019-06-26T01:40:32.380Z,86.40
2019-06-26T01:43:00.125Z,86.30
2019-06-26T01:45:27.801Z,86.50
2019-06-26T01:47:55.582Z,86.50
2019-06-26T01:50:23.275Z,86.30
2019-06-26T01:52:51.119Z,86.60
2019-06-26T01:55:18.823Z,87.10
2019-06-26T01:57:46.486Z,87.50
2019-06-26T02:00:14.482Z,87.60
2019-06-26T02:02:42.511Z,87.20
2019-06-26T02:05:10.378Z,88.00
2019-06-26T02:07:38.428Z,88.40
2019-06-26T02:10:06.700Z,88.70
2019-06-26T02:12:34.958Z,88.30
2019-06-26T02:15:02.773Z,88.10
2019-06-26T02:17:31.913Z,88.70
2019-06-26T02:19:59.775Z,88.90
2019-06-26T02:22:27.526Z,88.80
2019-06-26T02:24:55.293Z,89.40
2019-06-26T02:27:23.379Z,89.70
2019-06-26T02:29:51.157Z,89.20
2019-06-26T02:32:18.936Z,89.20
2019-06-26T02:34:46.645Z,89.10
2019-06-26T02:37:14.502Z,89.00
2019-06-26T02:39:42.301Z,89.30
2019-06-26T02:42:10.084Z,89.40
2019-06-26T02:44:51.948Z,89.30
2019-06-26T02:47:19.571Z,89.40
2019-06-26T02:49:37.439Z,89.30
2019-06-26T02:52:05.151Z,89.70
2019-06-26T02:54:33.083Z,89.60
2019-06-26T02:57:00.870Z,89.90
2019-06-26T02:59:28.437Z,90.00
2019-06-26T03:01:56.114Z,89.80
2019-06-26T03:04:23.861Z,89.80
2019-06-26T03:06:51.552Z,90.70
2019-06-26T03:09:19.336Z,90.30
2019-06-26T03:11:47.122Z,90.30
2019-06-26T03:14:14.773Z,90.30
2019-06-26T03:16:42.553Z,90.20
2019-06-26T03:19:10.393Z,90.30
2019-06-26T03:21:38.074Z,90.20
2019-06-26T03:24:05.826Z,90.10
2019-06-26T03:26:33.501Z,90.20
2019-06-26T03:29:01.261Z,90.20
2019-06-26T03:31:29.036Z,90.20
2019-06-26T03:33:56.816Z,90.40
2019-06-26T03:36:24.642Z,90.50
2019-06-26T03:38:52.230Z,90.50
2019-06-26T03:41:19.961Z,90.30
2019-06-26T03:43:47.638Z,90.40
2019-06-26T03:46:15.420Z,90.50
2019-06-26T03:48:43.086Z,90.60
2019-06-26T03:51:13.886Z,90.60
2019-06-26T03:53:40.326Z,90.70
2019-06-26T03:56:08.127Z,90.80
2019-06-26T03:58:35.881Z,90.90
2019-06-26T04:01:03.667Z,90.90
2019-06-26T04:03:31.542Z,90.90
2019-06-26T04:05:59.391Z,90.90
2019-06-26T04:08:26.952Z,90.90
2019-06-26T04:10:54.706Z,91.00
2019-06-26T04:13:22.582Z,91.00
2019-06-26T04:15:51.119Z,91.00
2019-06-26T04:18:18.913Z,91.00
2019-06-26T04:20:46.666Z,91.10
2019-06-26T04:23:14.437Z,91.00
2019-06-26T04:25:42.183Z,91.00
2019-06-26T04:28:09.943Z,91.10
2019-06-26T04:30:37.795Z,91.20
2019-06-26T04:33:13.004Z,91.10
2019-06-26T04:35:40.677Z,91.10
2019-06-26T04:38:08.407Z,91.30
2019-06-26T04:40:36.162Z,91.10
2019-06-26T04:43:03.936Z,91.20
2019-06-26T04:45:31.659Z,91.10
2019-06-26T04:47:59.509Z,91.10
2019-06-26T04:50:27.194Z,91.00
2019-06-26T04:52:55.033Z,91.20
2019-06-26T04:55:22.710Z,91.20
2019-06-26T04:57:50.513Z,91.10
2019-06-26T05:00:21.723Z,91.10
2019-06-26T05:02:49.378Z,91.00
2019-06-26T05:05:17.249Z,91.00
2019-06-26T05:07:45.390Z,91.00
2019-06-26T05:10:13.288Z,91.00
2019-06-26T05:12:41.293Z,91.10
2019-06-26T05:15:09.103Z,91.10
2019-06-26T05:17:37.649Z,91.10
2019-06-26T05:20:05.809Z,91.00
2019-06-26T05:22:34.083Z,91.10
2019-06-26T05:25:01.986Z,91.30
2019-06-26T05:27:31.333Z,91.30
2019-06-26T05:29:59.076Z,91.70
2019-06-26T05:32:26.809Z,91.80
2019-06-26T05:34:54.548Z,91.70
2019-06-26T05:37:22.356Z,91.80
2019-06-26T05:39:50.105Z,91.40
2019-06-26T05:42:18.004Z,91.30
2019-06-26T05:44:45.669Z,91.40
2019-06-26T05:47:13.831Z,91.40
2019-06-26T05:49:41.554Z,91.50
2019-06-26T05:52:09.129Z,91.60
2019-06-26T05:54:36.977Z,91.50
2019-06-26T05:57:04.653Z,91.50
2019-06-26T05:59:32.516Z,91.50
2019-06-26T06:02:00.336Z,91.50
2019-06-26T06:04:28.069Z,91.60
2019-06-26T06:06:55.941Z,91.40
2019-06-26T06:09:23.568Z,91.40
2019-06-26T06:11:51.354Z,91.30
2019-06-26T06:14:20.119Z,91.20
2019-06-26T06:16:48.188Z,91.80
2019-06-26T06:19:16.031Z,92.20
2019-06-26T06:21:43.821Z,91.50
2019-06-26T06:24:11.682Z,90.50
2019-06-26T06:26:39.265Z,90.70
2019-06-26T06:29:06.991Z,90.80
2019-06-26T06:31:34.677Z,90.50
2019-06-26T06:34:02.453Z,90.40
2019-06-26T06:36:30.333Z,89.60
2019-06-26T06:38:57.970Z,90.50
2019-06-26T06:41:25.637Z,88.80
2019-06-26T06:43:53.314Z,88.70
2019-06-26T06:46:21.040Z,89.40
2019-06-26T06:48:48.721Z,89.20
2019-06-26T06:51:16.573Z,89.10
2019-06-26T06:53:44.330Z,89.60
2019-06-26T06:56:13.315Z,88.90
2019-06-26T06:58:41.052Z,89.10
2019-06-26T07:01:08.848Z,90.10
2019-06-26T07:03:36.538Z,88.50
2019-06-26T07:06:04.364Z,88.10
2019-06-26T07:08:32.058Z,87.70
2019-06-26T07:10:59.851Z,88.50
2019-06-26T07:13:27.592Z,87.40
2019-06-26T07:15:55.367Z,88.20
2019-06-26T07:18:23.045Z,85.00
2019-06-26T07:20:50.777Z,84.90
2019-06-26T07:23:18.446Z,84.60
2019-06-26T07:25:46.084Z,84.50
2019-06-26T07:28:13.936Z,85.50
2019-06-26T07:30:41.803Z,85.60
2019-06-26T07:33:09.550Z,84.90
2019-06-26T07:35:37.395Z,82.40
2019-06-26T07:38:05.066Z,83.10
2019-06-26T07:40:32.843Z,82.50
2019-06-26T07:43:00.508Z,83.50
2019-06-26T07:45:28.266Z,84.20
2019-06-26T07:47:56.020Z,83.60
2019-06-26T07:50:23.796Z,84.10
2019-06-26T07:52:51.561Z,84.00
2019-06-26T07:55:19.133Z,84.30
2019-06-26T07:57:47.272Z,83.80
2019-06-26T08:00:14.980Z,86.80
2019-06-26T08:02:43.733Z,84.80
2019-06-26T08:05:13.410Z,83.60
2019-06-26T08:07:41.591Z,85.50
2019-06-26T08:10:09.698Z,84.30
2019-06-26T08:12:38.333Z,84.70
2019-06-26T08:15:06.158Z,83.00
2019-06-26T08:17:34.405Z,82.50
2019-06-26T08:20:02.091Z,83.70
2019-06-26T08:22:30.879Z,83.30
2019-06-26T08:24:58.562Z,81.90
2019-06-26T08:27:26.373Z,82.00
2019-06-26T08:29:54.013Z,81.50
2019-06-26T08:32:21.813Z,82.30
2019-06-26T08:34:49.506Z,81.90
2019-06-26T08:37:17.268Z,84.40
2019-06-26T08:39:44.980Z,80.70
2019-06-26T08:42:12.681Z,81.50
2019-06-26T08:44:40.407Z,81.50
2019-06-26T08:47:08.360Z,82.10
2019-06-26T08:49:36.253Z,82.50
2019-06-26T08:52:04.370Z,85.50
2019-06-26T08:54:32.276Z,81.80
2019-06-26T08:57:00.254Z,82.00
2019-06-26T08:59:28.199Z,84.60
2019-06-26T09:01:55.887Z,86.10
2019-06-26T09:04:23.725Z,85.20
2019-06-26T09:06:51.485Z,83.00
2019-06-26T09:09:19.217Z,83.30
2019-06-26T09:11:46.890Z,85.20
2019-06-26T09:14:14.738Z,84.80
2019-06-26T09:16:42.419Z,84.00
2019-06-26T09:19:10.258Z,84.40
2019-06-26T09:21:37.962Z,83.30
2019-06-26T09:24:05.714Z,86.30
2019-06-26T09:26:33.466Z,84.50
2019-06-26T09:29:01.304Z,81.90
2019-06-26T09:31:29.095Z,81.50
2019-06-26T09:33:56.877Z,82.20
2019-06-26T09:36:24.534Z,83.80
2019-06-26T09:38:52.315Z,80.70
2019-06-26T09:41:20.058Z,78.80
2019-06-26T09:43:47.819Z,77.30
2019-06-26T09:46:15.592Z,81.20
2019-06-26T09:48:52.846Z,78.40
2019-06-26T09:51:12.913Z,84.50
2019-06-26T09:53:47.164Z,83.00
2019-06-26T09:56:10.354Z,80.60
2019-06-26T09:58:38.264Z,79.10
2019-06-26T10:01:06.048Z,80.90
2019-06-26T10:03:33.728Z,76.30
2019-06-26T10:06:01.497Z,77.90
2019-06-26T10:08:29.196Z,77.00
2019-06-26T10:10:56.958Z,80.90
2019-06-26T10:13:24.630Z,78.10
2019-06-26T10:15:52.371Z,78.60
2019-06-26T10:18:20.234Z,78.40
2019-06-26T10:20:48.050Z,75.30
2019-06-26T10:23:15.804Z,76.50
2019-06-26T10:25:43.663Z,76.50
2019-06-26T10:28:11.346Z,72.60
2019-06-26T10:30:39.551Z,73.80
2019-06-26T10:33:07.473Z,76.50
2019-06-26T10:35:35.312Z,78.10
2019-06-26T10:38:02.966Z,76.30
2019-06-26T10:40:30.741Z,78.20
2019-06-26T10:42:58.537Z,78.80
2019-06-26T10:45:26.998Z,78.00
2019-06-26T10:47:54.718Z,75.90
2019-06-26T10:50:22.492Z,77.40
2019-06-26T10:52:50.238Z,77.50
2019-06-26T10:55:18.025Z,76.50
2019-06-26T10:57:45.764Z,72.90
2019-06-26T11:00:15.642Z,75.00
2019-06-26T11:02:45.079Z,71.70
2019-06-26T11:05:12.873Z,70.70
2019-06-26T11:07:42.366Z,70.00
2019-06-26T11:10:10.305Z,70.20
2019-06-26T11:12:38.752Z,73.20
2019-06-26T11:15:07.698Z,70.50
2019-06-26T11:17:37.066Z,73.70
2019-06-26T11:20:08.186Z,71.80
2019-06-26T11:22:36.623Z,68.30
2019-06-26T11:25:08.374Z,71.20
2019-06-26T11:27:37.807Z,69.00
2019-06-26T11:30:06.482Z,72.80
2019-06-26T11:32:35.865Z,71.60
2019-06-26T11:35:04.521Z,65.70
2019-06-26T11:37:33.079Z,61.00
2019-06-26T11:40:01.258Z,66.50
2019-06-26T11:42:32.814Z,67.40
2019-06-26T11:45:00.243Z,67.60
2019-06-26T11:47:28.300Z,69.00
2019-06-26T11:50:00.122Z,66.90
2019-06-26T11:52:25.621Z,64.00
2019-06-26T11:55:02.540Z,62.90
2019-06-26T11:57:22.985Z,62.90
2019-06-26T11:59:50.926Z,63.00
2019-06-26T12:02:18.704Z,63.80
2019-06-26T12:04:46.493Z,61.00
2019-06-26T12:07:14.409Z,59.20
2019-06-26T12:09:42.175Z,60.70
2019-06-26T12:12:10.068Z,61.90
2019-06-26T12:14:37.953Z,60.90
2019-06-26T12:17:05.730Z,61.60
2019-06-26T12:19:33.558Z,62.10
2019-06-26T12:22:01.362Z,62.40
2019-06-26T12:24:29.255Z,61.50
2019-06-26T12:26:56.936Z,58.40
2019-06-26T12:29:24.813Z,59.50
2019-06-26T12:31:52.563Z,59.60
2019-06-26T12:34:20.294Z,59.30
2019-06-26T12:36:48.061Z,61.30
2019-06-26T12:39:15.928Z,60.80
2019-06-26T12:41:43.547Z,60.80
2019-06-26T12:44:11.401Z,59.00
2019-06-26T12:46:39.153Z,60.30
2019-06-26T12:49:06.892Z,61.50
2019-06-26T12:51:34.818Z,60.00
2019-06-26T12:54:02.610Z,60.10
2019-06-26T12:56:30.640Z,57.70
2019-06-26T12:59:00.032Z,56.80
2019-06-26T13:01:27.993Z,56.00
2019-06-26T13:03:55.594Z,55.60
2019-06-26T13:06:23.361Z,58.40
2019-06-26T13:08:51.069Z,59.30
2019-06-26T13:11:18.802Z,58.50
2019-06-26T13:14:01.545Z,58.60
2019-06-26T13:16:16.272Z,59.50
2019-06-26T13:18:44.004Z,56.70
2019-06-26T13:21:11.764Z,56.20
2019-06-26T13:23:39.538Z,57.20
2019-06-26T13:26:07.293Z,57.90
2019-06-26T13:28:34.905Z,52.90
2019-06-26T13:31:02.778Z,56.80
2019-06-26T13:33:30.604Z,55.80
2019-06-26T13:35:58.641Z,58.90
2019-06-26T13:38:27.295Z,55.40
2019-06-26T13:40:55.453Z,54.30
2019-06-26T13:43:24.161Z,54.80
2019-06-26T13:45:51.933Z,55.20
2019-06-26T13:48:19.759Z,55.80
2019-06-26T13:50:47.593Z,56.00
2019-06-26T13:53:15.275Z,55.20
2019-06-26T13:55:43.001Z,54.10
2019-06-26T13:58:10.695Z,54.90
2019-06-26T14:00:38.539Z,55.30
2019-06-26T14:03:06.344Z,53.70
2019-06-26T14:05:34.189Z,57.10
2019-06-26T14:08:01.961Z,55.20
2019-06-26T14:10:29.740Z,52.80
2019-06-26T14:12:57.558Z,54.60
2019-06-26T14:15:25.428Z,54.20
2019-06-26T14:17:53.285Z,53.40
2019-06-26T14:20:21.473Z,54.60
2019-06-26T14:22:49.297Z,53.00
2019-06-26T14:25:17.104Z,51.10
2019-06-26T14:27:45.467Z,50.90
2019-06-26T14:30:13.437Z,52.50
2019-06-26T14:32:42.571Z,52.00
2019-06-26T14:35:10.475Z,52.10
2019-06-26T14:37:39.207Z,50.90
2019-06-26T14:40:07.784Z,50.90
2019-06-26T14:42:35.844Z,48.60
2019-06-26T14:45:04.594Z,51.30
2019-06-26T14:47:35.592Z,51.70
2019-06-26T14:50:03.230Z,51.30
2019-06-26T14:52:34.996Z,50.00
2019-06-26T14:55:01.778Z,50.40
2019-06-26T14:57:31.177Z,52.10
2019-06-26T14:59:58.900Z,50.10
2019-06-26T15:02:26.761Z,50.20
2019-06-26T15:04:54.475Z,52.90
2019-06-26T15:07:22.157Z,51.40
2019-06-26T15:09:49.934Z,53.90
2019-06-26T15:12:17.610Z,51.80
2019-06-26T15:14:45.399Z,50.00
2019-06-26T15:17:13.214Z,50.10
2019-06-26T15:19:41.062Z,50.00
2019-06-26T15:22:08.773Z,50.90
2019-06-26T15:24:36.561Z,49.00
2019-06-26T15:27:04.254Z,50.60
2019-06-26T15:29:40.476Z,51.40
2019-06-26T15:32:20.557Z,51.40
2019-06-26T15:34:48.465Z,53.00
2019-06-26T15:37:16.125Z,49.10
2019-06-26T15:39:43.959Z,50.70
2019-06-26T15:42:11.814Z,52.80
2019-06-26T15:44:39.577Z,52.20
2019-06-26T15:47:07.285Z,50.80
2019-06-26T15:49:35.087Z,51.40
2019-06-26T15:52:14.593Z,52.30
2019-06-26T15:54:32.356Z,52.60
2019-06-26T15:57:27.505Z,50.90
2019-06-26T15:59:55.317Z,51.50
2019-06-26T16:02:23.015Z,50.30
2019-06-26T16:04:54.569Z,51.40
2019-06-26T16:07:22.249Z,50.90
2019-06-26T16:09:50.001Z,50.20
2019-06-26T16:12:17.732Z,52.50
2019-06-26T16:14:45.597Z,50.20
2019-06-26T16:17:19.965Z,53.10
2019-06-26T16:19:49.302Z,52.00
2019-06-26T16:22:30.900Z,52.40
2019-06-26T16:24:46.619Z,52.50
2019-06-26T16:27:14.318Z,52.00
2019-06-26T16:29:42.113Z,53.40
2019-06-26T16:32:09.964Z,55.40
2019-06-26T16:34:37.736Z,52.60
2019-06-26T16:37:05.338Z,55.60
2019-06-26T16:39:33.079Z,57.20
2019-06-26T16:42:00.887Z,54.80
2019-06-26T16:44:28.726Z,54.10
2019-06-26T16:46:59.261Z,55.30
2019-06-26T16:49:26.270Z,54.60
2019-06-26T16:51:54.024Z,55.10
2019-06-26T16:54:21.819Z,56.00
2019-06-26T16:56:49.600Z,56.90
2019-06-26T16:59:17.322Z,55.80
2019-06-26T17:01:45.283Z,55.60
2019-06-26T17:04:13.076Z,54.50
2019-06-26T17:06:40.903Z,56.30
2019-06-26T17:09:08.835Z,55.80
2019-06-26T17:11:36.590Z,55.30
2019-06-26T17:14:04.382Z,57.30
2019-06-26T17:16:32.265Z,56.90
2019-06-26T17:19:00.035Z,57.40
2019-06-26T17:21:27.862Z,56.90
2019-06-26T17:23:55.742Z,56.70
2019-06-26T17:26:23.525Z,56.40
2019-06-26T17:28:51.211Z,57.70
2019-06-26T17:31:19.087Z,56.70
2019-06-26T17:33:46.754Z,57.50
2019-06-26T17:36:14.458Z,56.90
2019-06-26T17:38:42.258Z,57.10
2019-06-26T17:41:10.038Z,58.00
2019-06-26T17:43:37.717Z,57.80
2019-06-26T17:46:05.533Z,57.70
2019-06-26T17:48:33.379Z,57.20
2019-06-26T17:51:01.113Z,57.60
2019-06-26T17:53:29.062Z,58.40
2019-06-26T17:55:56.878Z,58.20
2019-06-26T17:58:25.583Z,58.30
2019-06-26T18:00:53.445Z,58.40
2019-06-26T18:03:21.233Z,58.10
2019-06-26T18:05:48.943Z,58.40
2019-06-26T18:08:16.873Z,58.10
2019-06-26T18:10:44.557Z,58.30
2019-06-26T18:13:12.313Z,58.60
2019-06-26T18:15:39.991Z,58.90
2019-06-26T18:18:07.745Z,59.30
2019-06-26T18:20:35.457Z,59.30
2019-06-26T18:23:07.586Z,59.00
2019-06-26T18:25:32.924Z,59.30
2019-06-26T18:28:00.722Z,59.10
2019-06-26T18:30:28.612Z,58.80
2019-06-26T18:32:56.432Z,59.00
2019-06-26T18:35:24.125Z,59.50
2019-06-26T18:37:52.290Z,59.80
2019-06-26T18:40:20.004Z,60.10
2019-06-26T18:42:47.780Z,60.20
2019-06-26T18:45:15.618Z,60.80
2019-06-26T18:47:43.624Z,61.10
2019-06-26T18:50:12.509Z,61.70
2019-06-26T18:52:40.638Z,61.90
2019-06-26T18:55:08.558Z,63.10
2019-06-26T18:57:36.397Z,62.70
2019-06-26T19:00:05.134Z,62.60
2019-06-26T19:02:34.398Z,63.20
2019-06-26T19:05:02.181Z,63.60
2019-06-26T19:07:31.474Z,63.40
2019-06-26T19:09:59.256Z,63.80
2019-06-26T19:12:26.959Z,62.80
2019-06-26T19:14:54.718Z,62.80
2019-06-26T19:17:22.438Z,63.20
2019-06-26T19:19:50.341Z,64.20
2019-06-26T19:22:18.165Z,63.80
2019-06-26T19:24:46.053Z,64.10
2019-06-26T19:27:13.809Z,64.00
2019-06-26T19:29:41.781Z,64.60
2019-06-26T19:32:09.762Z,64.90
2019-06-26T19:34:37.578Z,65.00
2019-06-26T19:37:05.442Z,65.20
2019-06-26T19:39:39.191Z,65.00
2019-06-26T19:42:07.048Z,65.30
2019-06-26T19:44:34.831Z,65.20
2019-06-26T19:47:02.609Z,64.70
2019-06-26T19:49:30.477Z,65.80
2019-06-26T19:51:58.262Z,66.20
2019-06-26T19:54:28.599Z,65.80
2019-06-26T19:56:56.582Z,66.60
2019-06-26T19:59:24.404Z,66.00
2019-06-26T20:01:52.431Z,65.80
2019-06-26T20:04:20.153Z,65.70
2019-06-26T20:06:47.932Z,66.10
2019-06-26T20:09:15.623Z,66.20
2019-06-26T20:11:43.519Z,66.80
2019-06-26T20:14:11.301Z,67.40
2019-06-26T20:16:39.140Z,67.30
2019-06-26T20:19:40.858Z,66.70
2019-06-26T20:22:08.575Z,66.80
2019-06-26T20:24:43.944Z,67.00
2019-06-26T20:27:05.930Z,67.40
2019-06-26T20:29:33.718Z,67.40
2019-06-26T20:32:01.570Z,67.90
2019-06-26T20:34:29.505Z,68.10
2019-06-26T20:36:57.381Z,67.90
2019-06-26T20:39:25.190Z,67.80
2019-06-26T20:41:52.944Z,67.20
2019-06-26T20:44:20.743Z,67.60
2019-06-26T20:46:48.414Z,68.00
2019-06-26T20:49:16.098Z,68.30
2019-06-26T20:51:44.752Z,69.10
2019-06-26T20:54:12.622Z,68.40
2019-06-26T20:56:40.521Z,68.30
2019-06-26T20:59:08.295Z,69.30
2019-06-26T21:01:36.141Z,69.50
2019-06-26T21:04:04.038Z,69.10
2019-06-26T21:06:31.858Z,69.30
2019-06-26T21:08:59.642Z,69.20
2019-06-26T21:11:43.418Z,69.40
2019-06-26T21:14:11.550Z,70.10
2019-06-26T21:16:39.402Z,69.70
2019-06-26T21:19:07.117Z,70.10
2019-06-26T21:21:34.941Z,70.40
2019-06-26T21:24:02.672Z,70.00
2019-06-26T21:26:30.443Z,70.20
2019-06-26T21:29:00.750Z,70.60
2019-06-26T21:31:27.927Z,70.90
2019-06-26T21:33:55.689Z,71.10
2019-06-26T21:36:23.441Z,71.30
2019-06-26T21:38:51.270Z,71.20
2019-06-26T21:41:18.948Z,71.70
2019-06-26T21:43:46.804Z,72.10
2019-06-26T21:46:14.516Z,72.20
2019-06-26T21:48:43.819Z,72.50
2019-06-26T21:51:33.228Z,72.80
2019-06-26T21:54:01.023Z,72.70
2019-06-26T21:56:28.811Z,73.10
2019-06-26T21:58:56.595Z,73.40
2019-06-26T22:01:43.198Z,73.20
2019-06-26T22:04:11.084Z,73.50
2019-06-26T22:06:38.974Z,74.10
2019-06-26T22:09:07.786Z,73.90
2019-06-26T22:11:35.775Z,74.20
2019-06-26T22:14:03.720Z,74.50
2019-06-26T22:16:31.600Z,74.60
2019-06-26T22:18:59.378Z,75.10
2019-06-26T22:21:27.164Z,75.10
2019-06-26T22:23:54.916Z,75.20
2019-06-26T22:26:22.585Z,75.30
2019-06-26T22:28:50.354Z,75.80
2019-06-26T22:31:18.128Z,75.90
2019-06-26T22:33:45.856Z,76.10
2019-06-26T22:36:13.637Z,76.20
2019-06-26T22:38:47.409Z,75.90
2019-06-26T22:41:15.218Z,76.20
2019-06-26T22:43:42.988Z,76.60
2019-06-26T22:46:10.661Z,77.50
2019-06-26T22:48:38.449Z,77.80
2019-06-26T22:51:06.096Z,77.20
2019-06-26T22:53:49.075Z,77.30
2019-06-26T22:56:16.759Z,76.90
2019-06-26T22:58:44.554Z,77.20
2019-06-26T23:01:12.263Z,77.30
2019-06-26T23:03:40.099Z,77.20
2019-06-26T23:06:07.892Z,77.50
2019-06-26T23:08:35.663Z,78.00
2019-06-26T23:11:03.464Z,78.00
2019-06-26T23:13:31.264Z,78.10
2019-06-26T23:15:59.127Z,78.30
2019-06-26T23:18:26.811Z,79.00
2019-06-26T23:20:54.594Z,79.70
2019-06-26T23:23:22.384Z,81.30
2019-06-26T23:25:50.230Z,81.60
2019-06-26T23:30:46.558Z,81.60
2019-06-26T23:33:14.407Z,82.50
2019-06-26T23:35:42.141Z,81.90
2019-06-26T23:38:09.901Z,81.50
2019-06-26T23:40:37.682Z,80.80
2019-06-26T23:43:05.347Z,82.30
2019-06-26T23:45:33.091Z,81.50
2019-06-26T23:48:00.744Z,81.40
2019-06-26T23:50:28.897Z,82.20
2019-06-26T23:52:56.583Z,82.50
2019-06-26T23:55:24.340Z,82.10
2019-06-26T23:57:58.989Z,82.00
